TIGER1 LSME-LSME
Flight info
| Callsign | TIGER1 |
|---|---|
| Flight time | N/A |
| Altitude | 15000 |
| Route | LSMA DCT 4645N00808E 4645N00803E 4641N00745E DCT NULXO DCT GS606/N0354F160 DCT ARLES DCT RIXUV DCT 4601N00842E 4606N00843E/N0349F150 4609N00848E DCT LSZL/N0354F160 DCT MC695 DCT PINIK/N0349F150 DCT 4603N00856E DCT LS214 DCT LS213 DCT LS212 DCT LS211 DCT LS210 DCT LS209 DCT LS208 DCT LS207 DCT LS206 DCT LS205 DCT LS204 DCT LS203 DCT LS202 DCT LS201 DCT LS702 DCT RONIX DCT ME104 |
| Aircraft | F28/M-SDFIRWY/H |
Departure
| Time | 2026-05-05 18:16 |
|---|---|
| Airport | Emmen Air Base (LSME) |
Arrival
| Time | N/A |
|---|---|
| Airport | Emmen Air Base (LSME) |
| Time | Latitude | Longitude | Altitude | Speed | Heading |
|---|---|---|---|---|---|
| 2026-05-05 18:07 | 47.08999 | 8.29773 | 1405 ft | 0 kts | 134° |
| 2026-05-05 18:15 | 47.08959 | 8.29794 | 1405 ft | 11 kts | 156° |
| 2026-05-05 18:15 | 47.08872 | 8.29876 | 1405 ft | 17 kts | 143° |
| 2026-05-05 18:15 | 47.08798 | 8.29960 | 1409 ft | 9 kts | 144° |
| 2026-05-05 18:16 | 47.08802 | 8.30017 | 1405 ft | 6 kts | 47° |
| 2026-05-05 18:16 | 47.09043 | 8.30291 | 1404 ft | 124 kts | 36° |
| 2026-05-05 18:16 | 47.10239 | 8.31658 | 1797 ft | 303 kts | 38° |
| 2026-05-05 18:16 | 47.12397 | 8.34116 | 3530 ft | 481 kts | 37° |
| 2026-05-05 18:17 | 47.14980 | 8.38323 | 5809 ft | 637 kts | 59° |
| 2026-05-05 18:17 | 47.15985 | 8.44985 | 8651 ft | 724 kts | 96° |
| 2026-05-05 18:17 | 47.15040 | 8.52555 | 11174 ft | 788 kts | 109° |
| 2026-05-05 18:17 | 47.11912 | 8.59427 | 12893 ft | 845 kts | 142° |
| 2026-05-05 18:18 | 47.06482 | 8.63449 | 11036 ft | 921 kts | 174° |
| 2026-05-05 18:18 | 47.00204 | 8.61413 | 10715 ft | 957 kts | 195° |
| 2026-05-05 18:18 | 46.94382 | 8.59952 | 12405 ft | 756 kts | 174° |
| 2026-05-05 18:18 | 46.89213 | 8.61945 | 13228 ft | 768 kts | 161° |
| 2026-05-05 18:19 | 46.84189 | 8.64644 | 13030 ft | 767 kts | 160° |
| 2026-05-05 18:19 | 46.79197 | 8.67365 | 12844 ft | 765 kts | 161° |
| 2026-05-05 18:19 | 46.74159 | 8.70015 | 13665 ft | 771 kts | 162° |
| 2026-05-05 18:19 | 46.69090 | 8.72585 | 14625 ft | 776 kts | 162° |
| 2026-05-05 18:20 | 46.63939 | 8.75147 | 15599 ft | 783 kts | 163° |
| 2026-05-05 18:20 | 46.60504 | 8.76859 | 15451 ft | 784 kts | 162° |
| 2026-05-05 18:20 | 46.55413 | 8.79411 | 14164 ft | 771 kts | 162° |
| 2026-05-05 18:20 | 46.50324 | 8.81948 | 13420 ft | 767 kts | 162° |
| 2026-05-05 18:21 | 46.45314 | 8.84455 | 12647 ft | 759 kts | 162° |
| 2026-05-05 18:21 | 46.40316 | 8.87003 | 12880 ft | 760 kts | 162° |
| 2026-05-05 18:21 | 46.35253 | 8.89494 | 13802 ft | 773 kts | 163° |
| 2026-05-05 18:21 | 46.30135 | 8.91930 | 13825 ft | 773 kts | 163° |
| 2026-05-05 18:22 | 46.25051 | 8.94414 | 13269 ft | 772 kts | 162° |
| 2026-05-05 18:22 | 46.19932 | 8.96249 | 12780 ft | 757 kts | 204° |
| 2026-05-05 18:22 | 46.15811 | 8.91842 | 9176 ft | 716 kts | 232° |
| 2026-05-05 18:22 | 46.14144 | 8.85103 | 6351 ft | 717 kts | 255° |
| 2026-05-05 18:23 | 46.12935 | 8.78513 | 6504 ft | 667 kts | 254° |
| 2026-05-05 18:23 | 46.11035 | 8.72260 | 7534 ft | 692 kts | 231° |
| 2026-05-05 18:23 | 46.07560 | 8.68389 | 8478 ft | 608 kts | 194° |
| 2026-05-05 18:23 | 46.03274 | 8.67410 | 7615 ft | 619 kts | 186° |
| 2026-05-05 18:24 | 45.99058 | 8.66535 | 8470 ft | 602 kts | 189° |
| 2026-05-05 18:24 | 45.95016 | 8.64667 | 7449 ft | 616 kts | 231° |
| 2026-05-05 18:24 | 45.92383 | 8.59400 | 6012 ft | 642 kts | 235° |
| 2026-05-05 18:24 | 45.89214 | 8.57407 | 5584 ft | 583 kts | 151° |
| 2026-05-05 18:25 | 45.85780 | 8.60576 | 5552 ft | 592 kts | 147° |
| 2026-05-05 18:25 | 45.83415 | 8.62751 | 6162 ft | 601 kts | 147° |
| 2026-05-05 18:25 | 45.81427 | 8.69289 | 5897 ft | 598 kts | 70° |
| 2026-05-05 18:25 | 45.83132 | 8.74744 | 6246 ft | 592 kts | 65° |
| 2026-05-05 18:26 | 45.85065 | 8.80366 | 8591 ft | 632 kts | 56° |
| 2026-05-05 18:26 | 45.86742 | 8.85114 | 4363 ft | 568 kts | 41° |
| 2026-05-05 18:26 | 45.89846 | 8.88517 | 4473 ft | 560 kts | 37° |
| 2026-05-05 18:26 | 45.92959 | 8.91865 | 4541 ft | 559 kts | 37° |
| 2026-05-05 18:27 | 45.96081 | 8.95198 | 4607 ft | 563 kts | 37° |
| 2026-05-05 18:27 | 45.99346 | 8.98655 | 4828 ft | 600 kts | 37° |
| 2026-05-05 18:27 | 46.02723 | 9.02406 | 5731 ft | 616 kts | 39° |
| 2026-05-05 18:27 | 46.05937 | 9.06121 | 8993 ft | 586 kts | 39° |
| 2026-05-05 18:28 | 46.11845 | 9.14089 | 13035 ft | 590 kts | 56° |
| 2026-05-05 18:28 | 46.13522 | 9.19278 | 11323 ft | 535 kts | 93° |
| 2026-05-05 18:28 | 46.12694 | 9.24673 | 7662 ft | 538 kts | 127° |
| 2026-05-05 18:29 | 46.09997 | 9.27709 | 6259 ft | 454 kts | 176° |
| 2026-05-05 18:29 | 46.07247 | 9.26929 | 6474 ft | 368 kts | 207° |
| 2026-05-05 18:29 | 46.05265 | 9.25168 | 7724 ft | 310 kts | 213° |
| 2026-05-05 18:29 | 46.03606 | 9.23387 | 7824 ft | 287 kts | 232° |
| 2026-05-05 18:30 | 46.03855 | 9.20744 | 7699 ft | 358 kts | 284° |
| 2026-05-05 18:30 | 46.04842 | 9.17031 | 6968 ft | 424 kts | 294° |
| 2026-05-05 18:30 | 46.06275 | 9.13177 | 6476 ft | 445 kts | 300° |
| 2026-05-05 18:30 | 46.07913 | 9.09357 | 6953 ft | 444 kts | 298° |
| 2026-05-05 18:31 | 46.06831 | 9.06164 | 6628 ft | 454 kts | 189° |
| 2026-05-05 18:31 | 46.03409 | 9.06556 | 5927 ft | 509 kts | 172° |
| 2026-05-05 18:31 | 45.99789 | 9.07420 | 4711 ft | 544 kts | 168° |
| 2026-05-05 18:31 | 45.95952 | 9.08862 | 5022 ft | 597 kts | 165° |
| 2026-05-05 18:32 | 45.92314 | 9.10950 | 7003 ft | 508 kts | 152° |
| 2026-05-05 18:32 | 45.89669 | 9.13514 | 8798 ft | 416 kts | 140° |
| 2026-05-05 18:32 | 45.87969 | 9.16381 | 10206 ft | 362 kts | 123° |
| 2026-05-05 18:32 | 45.87240 | 9.19644 | 10689 ft | 341 kts | 90° |